首页
METAR-TAF:

METAR-TAF

机场 :

Clayton, 新墨西哥州, 美国

纬度: 36-26-54N, 经度: 103-09-11W, 海拔: 1513米

当前天气观测

该预报发布于48分钟前的22:55 UTC
风速6节,风向东转东北
温度 2°C
湿度 35%
气压 1016 hPa
能見度: 16.1公里
散云层高于4700英尺

METAR: KCAO 092255Z AUTO 07006KT 10SM SCT047 02/M12 A2999 RMK AO2 SLP157 T00221117

时间: 16:43 (23:43 UTC)


TAF: 丢失

超过4000个机场的气象观测和天气预报(METAR&TAF报告)。

可查询的气象台以黄色和红色小点在地图上表示。

将鼠标移到小点上方,可查看气象台名称。

然后点击查看天气观测和预报。

如需切换地图:点击带黑十字的绿色按钮放大地图;点击带横线的绿色按钮缩小地图;或者点击绿色箭头查看邻近地区的地图。


METAR-TAF: